createdAt,value
2024-04-07T00:00:46.178Z,1007.93
2024-04-07T00:01:46.241Z,1007.89
2024-04-07T00:02:46.214Z,1007.89
2024-04-07T00:03:46.225Z,1007.89
2024-04-07T00:04:46.303Z,1007.87
2024-04-07T00:05:46.270Z,1007.88
2024-04-07T00:06:46.284Z,1007.88
2024-04-07T00:07:46.351Z,1007.87
2024-04-07T00:08:46.324Z,1007.86
2024-04-07T00:09:46.341Z,1007.84
2024-04-07T00:10:46.399Z,1007.88
2024-04-07T00:11:46.381Z,1007.87
2024-04-07T00:12:46.398Z,1007.87
2024-04-07T00:13:46.446Z,1007.90
2024-04-07T00:14:46.440Z,1007.86
2024-04-07T00:15:46.456Z,1007.88
2024-04-07T00:16:46.505Z,1007.85
2024-04-07T00:17:46.491Z,1007.87
2024-04-07T00:18:46.510Z,1007.84
2024-04-07T00:19:46.555Z,1007.82
2024-04-07T00:20:46.547Z,1007.84
2024-04-07T00:21:46.563Z,1007.85
2024-04-07T00:22:46.592Z,1007.85
2024-04-07T00:23:46.604Z,1007.86
2024-04-07T00:24:46.621Z,1007.84
2024-04-07T00:25:46.673Z,1007.83
2024-04-07T00:26:46.663Z,1007.90
2024-04-07T00:27:46.680Z,1007.84
2024-04-07T00:28:46.736Z,1007.88
2024-04-07T00:29:46.720Z,1007.91
2024-04-07T00:30:46.746Z,1007.90
2024-04-07T00:31:46.804Z,1007.86
2024-04-07T00:32:46.773Z,1007.85
2024-04-07T00:33:46.790Z,1007.87
2024-04-07T00:34:46.835Z,1007.88
2024-04-07T00:35:46.837Z,1007.86
2024-04-07T00:36:46.845Z,1007.81
2024-04-07T00:37:46.878Z,1007.83
2024-04-07T00:38:46.884Z,1007.80
2024-04-07T00:39:46.899Z,1007.82
2024-04-07T00:40:46.945Z,1007.82
2024-04-07T00:41:46.973Z,1007.80
2024-04-07T00:42:46.959Z,1007.79
2024-04-07T00:43:47.020Z,1007.72
2024-04-07T00:44:47.020Z,1007.75
2024-04-07T00:45:47.013Z,1007.74
2024-04-07T00:46:47.082Z,1007.74
2024-04-07T00:47:47.050Z,1007.72
2024-04-07T00:48:47.074Z,1007.71
2024-04-07T00:49:47.157Z,1007.74
2024-04-07T00:50:47.109Z,1007.76
2024-04-07T00:51:47.128Z,1007.74
2024-04-07T00:52:47.159Z,1007.75
2024-04-07T00:53:47.162Z,1007.73
2024-04-07T00:54:47.182Z,1007.77
2024-04-07T00:55:47.263Z,1007.78
2024-04-07T00:56:47.217Z,1007.71
2024-04-07T00:57:47.243Z,1007.73
2024-04-07T00:58:47.270Z,1007.71
2024-04-07T00:59:47.276Z,1007.67
2024-04-07T01:00:47.292Z,1007.69
2024-04-07T01:01:47.391Z,1007.68
2024-04-07T01:02:47.332Z,1007.73
2024-04-07T01:03:47.350Z,1007.74
2024-04-07T01:04:47.407Z,1007.76
2024-04-07T01:05:47.383Z,1007.75
2024-04-07T01:06:47.402Z,1007.78
2024-04-07T01:07:47.441Z,1007.73
2024-04-07T01:08:47.439Z,1007.75
2024-04-07T01:09:47.459Z,1007.72
2024-04-07T01:10:47.524Z,1007.69
2024-04-07T01:11:47.510Z,1007.66
2024-04-07T01:12:47.515Z,1007.62
2024-04-07T01:13:47.576Z,1007.64
2024-04-07T01:14:47.553Z,1007.62
2024-04-07T01:15:47.572Z,1007.59
2024-04-07T01:16:47.649Z,1007.62
2024-04-07T01:17:47.607Z,1007.60
2024-04-07T01:18:47.623Z,1007.56
2024-04-07T01:19:47.688Z,1007.57
2024-04-07T01:20:47.659Z,1007.60
2024-04-07T01:21:47.685Z,1007.59
2024-04-07T01:22:47.729Z,1007.55
2024-04-07T01:23:47.720Z,1007.57
2024-04-07T01:24:47.738Z,1007.56
2024-04-07T01:25:47.809Z,1007.55
2024-04-07T01:26:47.771Z,1007.55
2024-04-07T01:27:47.789Z,1007.53
2024-04-07T01:28:47.845Z,1007.52
2024-04-07T01:29:47.826Z,1007.52
2024-04-07T01:30:47.845Z,1007.54
2024-04-07T01:31:47.910Z,1007.52
2024-04-07T01:32:47.879Z,1007.54
2024-04-07T01:33:47.900Z,1007.55
2024-04-07T01:34:47.939Z,1007.55
2024-04-07T01:35:47.958Z,1007.57
2024-04-07T01:36:47.953Z,1007.52
2024-04-07T01:37:48.044Z,1007.51
2024-04-07T01:38:47.995Z,1007.48
2024-04-07T01:39:48.008Z,1007.48
2024-04-07T01:40:48.065Z,1007.40
2024-04-07T01:41:48.047Z,1007.40
2024-04-07T01:42:48.115Z,1007.37
2024-04-07T01:43:48.148Z,1007.33
2024-04-07T01:44:48.100Z,1007.32
2024-04-07T01:45:48.119Z,1007.28
2024-04-07T01:46:48.209Z,1007.30
2024-04-07T01:47:48.176Z,1007.28
2024-04-07T01:48:48.177Z,1007.26
2024-04-07T01:49:48.216Z,1007.23
2024-04-07T01:50:48.216Z,1007.24
2024-04-07T01:51:48.235Z,1007.23
2024-04-07T01:52:48.300Z,1007.24
2024-04-07T01:53:48.267Z,1007.21
2024-04-07T01:54:48.286Z,1007.24
2024-04-07T01:55:48.345Z,1007.24
2024-04-07T01:56:48.323Z,1007.20
2024-04-07T01:57:48.343Z,1007.25
2024-04-07T01:58:48.401Z,1007.21
2024-04-07T01:59:48.378Z,1007.21
2024-04-07T02:00:48.396Z,1007.21
2024-04-07T02:01:48.447Z,1007.20
2024-04-07T02:02:48.432Z,1007.22
2024-04-07T02:03:48.459Z,1007.20
2024-04-07T02:04:49.821Z,1007.17
2024-04-07T02:05:48.489Z,1007.14
2024-04-07T02:06:48.505Z,1007.17
2024-04-07T02:07:48.568Z,1007.19
2024-04-07T02:08:48.545Z,1007.09
2024-04-07T02:09:48.568Z,1007.10
2024-04-07T02:10:48.610Z,1007.15
2024-04-07T02:11:48.598Z,1007.16
2024-04-07T02:12:48.617Z,1007.14
2024-04-07T02:13:48.670Z,1007.11
2024-04-07T02:14:48.653Z,1007.09
2024-04-07T02:15:48.689Z,1007.09
2024-04-07T02:16:48.739Z,1007.06
2024-04-07T02:17:48.707Z,1007.01
2024-04-07T02:18:48.726Z,1007.08
2024-04-07T02:19:48.771Z,1007.06
2024-04-07T02:20:48.761Z,1007.07
2024-04-07T02:21:48.783Z,1007.07
2024-04-07T02:22:48.885Z,1007.07
2024-04-07T02:23:48.823Z,1007.07
2024-04-07T02:24:48.836Z,1007.01
2024-04-07T02:25:48.973Z,1007.02
2024-04-07T02:26:48.875Z,1006.95
2024-04-07T02:27:48.896Z,1007.00
2024-04-07T02:28:48.966Z,1006.96
2024-04-07T02:29:48.944Z,1007.01
2024-04-07T02:30:48.947Z,1006.96
2024-04-07T02:31:48.991Z,1007.02
2024-04-07T02:32:48.986Z,1007.00
2024-04-07T02:33:49.002Z,1007.01
2024-04-07T02:34:49.095Z,1007.01
2024-04-07T02:35:49.044Z,1007.04
2024-04-07T02:36:49.064Z,1007.05
2024-04-07T02:37:49.121Z,1007.06
2024-04-07T02:38:49.092Z,1007.07
2024-04-07T02:39:49.116Z,1007.01
2024-04-07T02:40:49.184Z,1007.03
2024-04-07T02:41:49.157Z,1007.06
2024-04-07T02:42:49.171Z,1007.02
2024-04-07T02:43:49.249Z,1007.00
2024-04-07T02:44:49.201Z,1007.03
2024-04-07T02:45:49.231Z,1007.02
2024-04-07T02:46:49.324Z,1007.02
2024-04-07T02:47:49.258Z,1007.00
2024-04-07T02:48:49.276Z,1007.01
2024-04-07T02:49:49.339Z,1006.98
2024-04-07T02:50:49.313Z,1007.01
2024-04-07T02:51:49.330Z,1007.02
2024-04-07T02:52:49.385Z,1007.03
2024-04-07T02:53:49.370Z,1007.04
2024-04-07T02:54:49.384Z,1007.00
2024-04-07T02:55:49.471Z,1006.98
2024-04-07T02:56:49.423Z,1006.99
2024-04-07T02:57:49.441Z,1007.01
2024-04-07T02:58:49.518Z,1006.99
2024-04-07T02:59:49.481Z,1007.00
2024-04-07T03:00:49.500Z,1006.97
2024-04-07T03:01:49.539Z,1007.02
2024-04-07T03:02:49.533Z,1006.99
2024-04-07T03:03:49.562Z,1007.01
2024-04-07T03:04:49.629Z,1006.95
2024-04-07T03:05:49.590Z,1006.96
2024-04-07T03:06:49.608Z,1006.93
2024-04-07T03:07:49.708Z,1006.93
2024-04-07T03:08:49.652Z,1006.94
2024-04-07T03:09:49.661Z,1006.93
2024-04-07T03:10:49.743Z,1006.92
2024-04-07T03:11:49.697Z,1006.93
2024-04-07T03:12:49.716Z,1006.92
2024-04-07T03:13:49.780Z,1006.95
2024-04-07T03:14:49.748Z,1006.93
2024-04-07T03:15:49.773Z,1006.90
2024-04-07T03:16:49.819Z,1006.93
2024-04-07T03:17:49.808Z,1006.87
2024-04-07T03:18:49.827Z,1006.84
2024-04-07T03:19:49.913Z,1006.89
2024-04-07T03:20:49.867Z,1006.89
2024-04-07T03:21:49.877Z,1006.81
2024-04-07T03:22:49.971Z,1006.81
2024-04-07T03:23:49.917Z,1006.83
2024-04-07T03:24:49.932Z,1006.83
2024-04-07T03:25:49.987Z,1006.85
2024-04-07T03:26:49.968Z,1006.79
2024-04-07T03:27:49.991Z,1006.84
2024-04-07T03:28:50.085Z,1006.87
2024-04-07T03:29:50.038Z,1006.84
2024-04-07T03:30:50.046Z,1006.88
2024-04-07T03:31:50.126Z,1006.89
2024-04-07T03:32:50.080Z,1006.88
2024-04-07T03:33:50.105Z,1006.85
2024-04-07T03:34:50.174Z,1006.86
2024-04-07T03:35:50.135Z,1006.90
2024-04-07T03:36:50.159Z,1006.92
2024-04-07T03:37:50.225Z,1006.92
2024-04-07T03:38:50.194Z,1006.92
2024-04-07T03:39:50.221Z,1006.98
2024-04-07T03:40:50.264Z,1006.94
2024-04-07T03:41:50.245Z,1006.97
2024-04-07T03:42:50.263Z,1007.02
2024-04-07T03:43:50.324Z,1007.04
2024-04-07T03:44:50.304Z,1007.04
2024-04-07T03:45:50.319Z,1007.01
2024-04-07T03:46:50.370Z,1007.01
2024-04-07T03:47:50.354Z,1007.04
2024-04-07T03:48:50.374Z,1007.03
2024-04-07T03:49:50.419Z,1006.95
2024-04-07T03:50:50.414Z,1006.94
2024-04-07T03:51:50.428Z,1006.96
2024-04-07T03:52:50.504Z,1006.97
2024-04-07T03:53:50.464Z,1006.91
2024-04-07T03:54:50.485Z,1006.92
2024-04-07T03:55:50.554Z,1006.94
2024-04-07T03:56:50.516Z,1006.90
2024-04-07T03:57:50.537Z,1006.90
2024-04-07T03:58:50.589Z,1006.88
2024-04-07T03:59:50.573Z,1006.87
2024-04-07T04:00:50.591Z,1006.89
2024-04-07T04:01:50.645Z,1006.87
2024-04-07T04:02:50.635Z,1006.84
2024-04-07T04:03:50.644Z,1006.83
2024-04-07T04:04:50.682Z,1006.82
2024-04-07T04:05:50.689Z,1006.80
2024-04-07T04:06:50.701Z,1006.82
2024-04-07T04:07:50.738Z,1006.79
2024-04-07T04:08:50.740Z,1006.76
2024-04-07T04:09:50.758Z,1006.79
2024-04-07T04:10:50.837Z,1006.77
2024-04-07T04:11:50.793Z,1006.75
2024-04-07T04:12:50.809Z,1006.74
2024-04-07T04:13:50.842Z,1006.73
2024-04-07T04:14:50.847Z,1006.73
2024-04-07T04:15:50.864Z,1006.73
2024-04-07T04:16:50.924Z,1006.73
2024-04-07T04:17:50.905Z,1006.74
2024-04-07T04:18:50.919Z,1006.75
2024-04-07T04:19:50.981Z,1006.74
2024-04-07T04:20:50.964Z,1006.75
2024-04-07T04:21:50.978Z,1006.75
2024-04-07T04:22:51.047Z,1006.78
2024-04-07T04:23:51.023Z,1006.77
2024-04-07T04:24:51.027Z,1006.73
2024-04-07T04:25:51.115Z,1006.71
2024-04-07T04:26:51.090Z,1006.69
2024-04-07T04:27:51.087Z,1006.70
2024-04-07T04:28:51.152Z,1006.67
2024-04-07T04:29:51.114Z,1006.64
2024-04-07T04:30:51.140Z,1006.63
2024-04-07T04:31:51.181Z,1006.65
2024-04-07T04:32:51.171Z,1006.63
2024-04-07T04:33:51.193Z,1006.68
2024-04-07T04:34:51.226Z,1006.66
2024-04-07T04:35:51.224Z,1006.64
2024-04-07T04:36:51.241Z,1006.62
2024-04-07T04:37:51.276Z,1006.61
2024-04-07T04:38:51.282Z,1006.59
2024-04-07T04:39:51.320Z,1006.66
2024-04-07T04:40:51.314Z,1006.65
2024-04-07T04:41:51.332Z,1006.61
2024-04-07T04:42:51.368Z,1006.63
2024-04-07T04:43:51.382Z,1006.62
2024-04-07T04:44:51.385Z,1006.58
2024-04-07T04:45:51.403Z,1006.56
2024-04-07T04:46:51.427Z,1006.61
2024-04-07T04:47:51.439Z,1006.61
2024-04-07T04:48:51.457Z,1006.60
2024-04-07T04:49:51.604Z,1006.60
2024-04-07T04:50:51.495Z,1006.58
2024-04-07T04:51:51.515Z,1006.51
2024-04-07T04:52:53.036Z,1006.51
2024-04-07T04:53:51.547Z,1006.51
2024-04-07T04:54:51.580Z,1006.48
2024-04-07T04:55:51.610Z,1006.54
2024-04-07T04:56:51.614Z,1006.53
2024-04-07T04:57:51.620Z,1006.50
2024-04-07T04:58:51.661Z,1006.51
2024-04-07T04:59:51.656Z,1006.54
2024-04-07T05:00:51.671Z,1006.54
2024-04-07T05:01:51.725Z,1006.45
2024-04-07T05:02:51.706Z,1006.52
2024-04-07T05:03:51.726Z,1006.52
2024-04-07T05:04:51.800Z,1006.51
2024-04-07T05:05:51.759Z,1006.49
2024-04-07T05:06:51.777Z,1006.54
2024-04-07T05:07:51.830Z,1006.49
2024-04-07T05:08:51.814Z,1006.50
2024-04-07T05:09:51.835Z,1006.47
2024-04-07T05:10:51.883Z,1006.43
2024-04-07T05:11:51.878Z,1006.51
2024-04-07T05:12:51.883Z,1006.48
2024-04-07T05:13:51.909Z,1006.49
2024-04-07T05:14:51.926Z,1006.49
2024-04-07T05:15:51.943Z,1006.52
2024-04-07T05:16:51.969Z,1006.56
2024-04-07T05:17:51.991Z,1006.52
2024-04-07T05:18:51.995Z,1006.53
2024-04-07T05:19:52.057Z,1006.55
2024-04-07T05:20:52.025Z,1006.52
2024-04-07T05:21:52.045Z,1006.54
2024-04-07T05:22:52.074Z,1006.50
2024-04-07T05:23:52.079Z,1006.51
2024-04-07T05:24:52.106Z,1006.50
2024-04-07T05:25:52.156Z,1006.46
2024-04-07T05:26:52.136Z,1006.52
2024-04-07T05:27:52.157Z,1006.51
2024-04-07T05:28:52.221Z,1006.53
2024-04-07T05:29:52.195Z,1006.50
2024-04-07T05:30:52.208Z,1006.55
2024-04-07T05:31:52.255Z,1006.49
2024-04-07T05:32:52.257Z,1006.52
2024-04-07T05:33:52.258Z,1006.52
2024-04-07T05:34:52.296Z,1006.50
2024-04-07T05:35:52.301Z,1006.54
2024-04-07T05:36:52.314Z,1006.54
2024-04-07T05:37:52.394Z,1006.52
2024-04-07T05:38:52.357Z,1006.57
2024-04-07T05:39:52.378Z,1006.54
2024-04-07T05:40:52.414Z,1006.54
2024-04-07T05:41:52.407Z,1006.60
2024-04-07T05:42:52.426Z,1006.62
2024-04-07T05:43:52.486Z,1006.61
2024-04-07T05:44:52.463Z,1006.62
2024-04-07T05:45:52.485Z,1006.70
2024-04-07T05:46:52.506Z,1006.71
2024-04-07T05:47:52.514Z,1006.75
2024-04-07T05:48:52.541Z,1006.81
2024-04-07T05:49:52.581Z,1006.87
2024-04-07T05:50:52.571Z,1006.85
2024-04-07T05:51:52.591Z,1006.90
2024-04-07T05:52:52.644Z,1006.98
2024-04-07T05:53:52.624Z,1007.02
2024-04-07T05:54:52.643Z,1007.06
2024-04-07T05:55:52.668Z,1007.07
2024-04-07T05:56:52.686Z,1007.11
2024-04-07T05:57:52.703Z,1007.08
2024-04-07T05:58:52.736Z,1007.06
2024-04-07T05:59:52.739Z,1007.07
2024-04-07T06:00:52.760Z,1007.07
2024-04-07T06:01:52.792Z,1007.06
2024-04-07T06:02:52.795Z,1007.09
2024-04-07T06:03:52.818Z,1007.10
2024-04-07T06:04:52.841Z,1007.14
2024-04-07T06:05:52.870Z,1007.22
2024-04-07T06:06:52.873Z,1007.28
2024-04-07T06:07:52.962Z,1007.37
2024-04-07T06:08:52.911Z,1007.47
2024-04-07T06:09:52.930Z,1007.54
2024-04-07T06:10:52.976Z,1007.47
2024-04-07T06:11:52.984Z,1007.55
2024-04-07T06:12:52.988Z,1007.53
2024-04-07T06:13:53.029Z,1007.53
2024-04-07T06:14:53.029Z,1007.55
2024-04-07T06:15:53.045Z,1007.62
2024-04-07T06:16:53.079Z,1007.72
2024-04-07T06:17:53.095Z,1007.68
2024-04-07T06:18:53.108Z,1007.77
2024-04-07T06:19:53.164Z,1007.79
2024-04-07T06:20:54.751Z,1007.79
2024-04-07T06:21:53.166Z,1007.82
2024-04-07T06:22:53.221Z,1007.77
2024-04-07T06:23:53.210Z,1007.84
2024-04-07T06:24:53.228Z,1007.83
2024-04-07T06:25:53.273Z,1007.77
2024-04-07T06:26:53.268Z,1007.81
2024-04-07T06:27:53.293Z,1007.83
2024-04-07T06:28:53.365Z,1007.91
2024-04-07T06:29:53.336Z,1007.87
2024-04-07T06:30:53.346Z,1007.92
2024-04-07T06:31:53.443Z,1007.94
2024-04-07T06:32:53.425Z,1007.94
2024-04-07T06:33:53.410Z,1007.94
2024-04-07T06:34:53.465Z,1007.89
2024-04-07T06:35:53.455Z,1007.90
2024-04-07T06:36:53.486Z,1007.93
2024-04-07T06:37:53.516Z,1007.92
2024-04-07T06:38:53.517Z,1007.85
2024-04-07T06:39:53.549Z,1007.86
2024-04-07T06:40:53.570Z,1007.92
2024-04-07T06:41:53.603Z,1007.90
2024-04-07T06:42:53.617Z,1007.96
2024-04-07T06:43:53.641Z,1007.94
2024-04-07T06:44:53.643Z,1007.95
2024-04-07T06:45:53.669Z,1007.93
2024-04-07T06:46:53.699Z,1007.97
2024-04-07T06:47:53.715Z,1007.97
2024-04-07T06:48:53.747Z,1007.98
2024-04-07T06:49:53.792Z,1007.97
2024-04-07T06:50:53.777Z,1007.90
2024-04-07T06:51:53.804Z,1007.94
2024-04-07T06:52:53.831Z,1007.89
2024-04-07T06:53:53.848Z,1007.95
2024-04-07T06:54:53.867Z,1007.99
2024-04-07T06:55:53.901Z,1008.02
2024-04-07T06:56:53.911Z,1008.04
2024-04-07T06:57:55.502Z,1008.06
2024-04-07T06:58:53.992Z,1008.01
2024-04-07T06:59:53.982Z,1008.05
2024-04-07T07:00:54.022Z,1007.98
2024-04-07T07:01:54.062Z,1008.03
2024-04-07T07:02:54.047Z,1008.04
2024-04-07T07:03:54.071Z,1008.05
2024-04-07T07:04:54.125Z,1008.02
2024-04-07T07:05:54.113Z,1008.10
2024-04-07T07:06:54.136Z,1008.09
2024-04-07T07:07:54.180Z,1008.12
2024-04-07T07:08:54.185Z,1008.13
2024-04-07T07:09:54.207Z,1008.15
2024-04-07T07:10:54.310Z,1008.19
2024-04-07T07:11:54.252Z,1008.19
2024-04-07T07:12:54.276Z,1008.22
2024-04-07T07:13:54.342Z,1008.29
2024-04-07T07:14:54.332Z,1008.29
2024-04-07T07:15:54.347Z,1008.29
2024-04-07T07:16:54.380Z,1008.34
2024-04-07T07:17:54.394Z,1008.36
2024-04-07T07:18:54.416Z,1008.40
2024-04-07T07:19:54.500Z,1008.42
2024-04-07T07:20:54.466Z,1008.42
2024-04-07T07:21:54.485Z,1008.49
2024-04-07T07:22:54.582Z,1008.51
2024-04-07T07:23:54.533Z,1008.47
2024-04-07T07:24:54.552Z,1008.52
2024-04-07T07:25:54.592Z,1008.51
2024-04-07T07:26:54.603Z,1008.56
2024-04-07T07:27:54.623Z,1008.51
2024-04-07T07:28:54.661Z,1008.53
2024-04-07T07:29:54.675Z,1008.55
2024-04-07T07:30:54.698Z,1008.54
2024-04-07T07:31:54.752Z,1008.58
2024-04-07T07:32:54.745Z,1008.59
2024-04-07T07:33:54.777Z,1008.54
2024-04-07T07:34:54.854Z,1008.52
2024-04-07T07:35:54.826Z,1008.55
2024-04-07T07:36:54.854Z,1008.53
2024-04-07T07:37:54.927Z,1008.59
2024-04-07T07:38:54.899Z,1008.59
2024-04-07T07:39:54.916Z,1008.60
2024-04-07T07:40:54.990Z,1008.66
2024-04-07T07:41:54.964Z,1008.73
2024-04-07T07:42:54.989Z,1008.72
2024-04-07T07:43:55.051Z,1008.71
2024-04-07T07:44:55.036Z,1008.73
2024-04-07T07:45:55.067Z,1008.82
2024-04-07T07:46:55.100Z,1008.84
2024-04-07T07:47:55.117Z,1008.81
2024-04-07T07:48:55.136Z,1008.83
2024-04-07T07:49:55.184Z,1008.88
2024-04-07T07:50:55.187Z,1008.82
2024-04-07T07:51:55.210Z,1008.82
2024-04-07T07:52:55.259Z,1008.85
2024-04-07T07:53:55.261Z,1008.79
2024-04-07T07:54:55.295Z,1008.80
2024-04-07T07:55:55.336Z,1008.82
2024-04-07T07:56:55.342Z,1008.83
2024-04-07T07:57:55.365Z,1008.88
2024-04-07T07:58:55.390Z,1008.92
2024-04-07T07:59:59.746Z,1008.89
2024-04-07T08:00:55.447Z,1008.96
2024-04-07T08:01:55.508Z,1008.99
2024-04-07T08:02:55.491Z,1009.01
2024-04-07T08:03:55.512Z,1009.01
2024-04-07T08:04:55.606Z,1009.03
2024-04-07T08:05:55.561Z,1009.04
2024-04-07T08:06:55.603Z,1009.05
2024-04-07T08:07:55.617Z,1009.05
2024-04-07T08:08:55.635Z,1009.07
2024-04-07T08:09:55.903Z,1009.07
2024-04-07T08:10:55.759Z,1009.05
2024-04-07T08:11:55.712Z,1009.05
2024-04-07T08:12:55.739Z,1009.06
2024-04-07T08:13:55.764Z,1009.10
2024-04-07T08:14:55.786Z,1009.17
2024-04-07T08:15:55.818Z,1009.17
2024-04-07T08:16:55.856Z,1009.13
2024-04-07T08:17:55.888Z,1009.17
2024-04-07T08:18:55.890Z,1009.14
2024-04-07T08:19:55.919Z,1009.12
2024-04-07T08:20:55.943Z,1009.12
2024-04-07T08:21:56.009Z,1009.12
2024-04-07T08:22:56.034Z,1009.20
2024-04-07T08:23:56.031Z,1009.25
2024-04-07T08:24:56.041Z,1009.23
2024-04-07T08:25:56.101Z,1009.26
2024-04-07T08:26:56.096Z,1009.30
2024-04-07T08:27:56.128Z,1009.34
2024-04-07T08:28:56.151Z,1009.37
2024-04-07T08:29:56.168Z,1009.46
2024-04-07T08:30:56.195Z,1009.42
2024-04-07T08:31:56.241Z,1009.41
2024-04-07T08:32:56.265Z,1009.42
2024-04-07T08:33:56.269Z,1009.47
2024-04-07T08:34:56.363Z,1009.46
2024-04-07T08:35:56.326Z,1009.53
2024-04-07T08:36:56.358Z,1009.49
2024-04-07T08:37:56.379Z,1009.49
2024-04-07T08:38:56.418Z,1009.51
2024-04-07T08:39:56.443Z,1009.53
2024-04-07T08:40:56.463Z,1009.50
2024-04-07T08:41:56.485Z,1009.47
2024-04-07T08:42:56.521Z,1009.49
2024-04-07T08:43:58.873Z,1009.48
2024-04-07T08:44:56.560Z,1009.51
2024-04-07T08:45:56.589Z,1009.47
2024-04-07T08:46:56.631Z,1009.50
2024-04-07T08:47:56.644Z,1009.47
2024-04-07T08:48:56.681Z,1009.47
2024-04-07T08:49:56.726Z,1009.56
2024-04-07T08:50:56.718Z,1009.59
2024-04-07T08:51:56.760Z,1009.60
2024-04-07T08:52:56.782Z,1009.57
2024-04-07T08:53:56.794Z,1009.71
2024-04-07T08:54:56.846Z,1009.69
2024-04-07T08:55:56.882Z,1009.74
2024-04-07T08:56:56.872Z,1009.73
2024-04-07T08:57:56.904Z,1009.82
2024-04-07T08:58:56.949Z,1009.81
2024-04-07T08:59:56.954Z,1009.79
2024-04-07T09:00:56.980Z,1009.89
2024-04-07T09:01:57.026Z,1009.94
2024-04-07T09:02:57.046Z,1009.90
2024-04-07T09:03:57.059Z,1010.00
2024-04-07T09:04:57.102Z,1009.93
2024-04-07T09:05:57.107Z,1009.85
2024-04-07T09:06:57.134Z,1009.88
2024-04-07T09:07:57.186Z,1009.91
2024-04-07T09:08:57.208Z,1009.91
2024-04-07T09:09:57.217Z,1009.98
2024-04-07T09:10:57.252Z,1009.96
2024-04-07T09:11:57.266Z,1009.98
2024-04-07T09:12:57.290Z,1010.03
2024-04-07T09:13:57.337Z,1010.08
2024-04-07T09:14:57.344Z,1009.99
2024-04-07T09:15:57.373Z,1010.14
2024-04-07T09:16:57.405Z,1010.16
2024-04-07T09:17:57.424Z,1010.22
2024-04-07T09:19:00.088Z,1010.18
2024-04-07T09:19:57.491Z,1010.21
2024-04-07T09:20:57.500Z,1010.14
2024-04-07T09:21:57.549Z,1010.21
2024-04-07T09:22:57.582Z,1010.19
2024-04-07T09:23:57.579Z,1010.18
2024-04-07T09:24:57.611Z,1010.15
2024-04-07T09:25:57.645Z,1010.17
2024-04-07T09:26:57.659Z,1010.15
2024-04-07T09:27:57.691Z,1010.12
2024-04-07T09:28:57.717Z,1010.11
2024-04-07T09:29:57.745Z,1010.10
2024-04-07T09:30:57.774Z,1010.19
2024-04-07T09:31:57.794Z,1010.20
2024-04-07T09:32:57.818Z,1010.13
2024-04-07T09:33:57.853Z,1010.19
2024-04-07T09:34:57.892Z,1010.17
2024-04-07T09:35:57.905Z,1010.22
2024-04-07T09:36:57.928Z,1010.22
2024-04-07T09:37:57.995Z,1010.25
2024-04-07T09:38:57.981Z,1010.18
2024-04-07T09:39:58.007Z,1010.19
2024-04-07T09:40:58.056Z,1010.25
2024-04-07T09:41:58.065Z,1010.22
2024-04-07T09:42:58.091Z,1010.30
2024-04-07T09:43:58.130Z,1010.27
2024-04-07T09:44:58.141Z,1010.23
2024-04-07T09:45:58.169Z,1010.27
2024-04-07T09:46:58.197Z,1010.24
2024-04-07T09:47:58.225Z,1010.23
2024-04-07T09:48:58.253Z,1010.35
2024-04-07T09:49:58.281Z,1010.38
2024-04-07T09:50:58.303Z,1010.37
2024-04-07T09:51:58.341Z,1010.43
2024-04-07T09:52:58.401Z,1010.52
2024-04-07T09:53:58.384Z,1010.41
2024-04-07T09:54:58.411Z,1010.41
2024-04-07T09:55:58.485Z,1010.44
2024-04-07T09:56:58.463Z,1010.40
2024-04-07T09:57:58.491Z,1010.43
2024-04-07T09:58:58.527Z,1010.35
2024-04-07T09:59:58.544Z,1010.42
2024-04-07T10:00:58.570Z,1010.37
2024-04-07T10:01:58.604Z,1010.38
2024-04-07T10:02:58.629Z,1010.36
2024-04-07T10:03:58.655Z,1010.35
2024-04-07T10:04:58.701Z,1010.42
2024-04-07T10:05:58.708Z,1010.42
2024-04-07T10:06:58.739Z,1010.53
2024-04-07T10:07:58.765Z,1010.50
2024-04-07T10:08:58.798Z,1010.51
2024-04-07T10:09:58.867Z,1010.55
2024-04-07T10:11:07.878Z,1010.51
2024-04-07T10:11:58.873Z,1010.47
2024-04-07T10:12:58.910Z,1010.51
2024-04-07T10:13:58.934Z,1010.56
2024-04-07T10:14:58.966Z,1010.54
2024-04-07T10:15:58.986Z,1010.53
2024-04-07T10:16:59.027Z,1010.51
2024-04-07T10:17:59.036Z,1010.52
2024-04-07T10:18:59.051Z,1010.59
2024-04-07T10:19:59.111Z,1010.59
2024-04-07T10:20:59.123Z,1010.63
2024-04-07T10:21:59.133Z,1010.66
2024-04-07T10:22:59.189Z,1010.67
2024-04-07T10:23:59.180Z,1010.70
2024-04-07T10:24:59.209Z,1010.75
2024-04-07T10:25:59.290Z,1010.69
2024-04-07T10:26:59.260Z,1010.70
2024-04-07T10:27:59.284Z,1010.74
2024-04-07T10:28:59.434Z,1010.74
2024-04-07T10:29:59.338Z,1010.67
2024-04-07T10:30:59.365Z,1010.71
2024-04-07T10:31:59.426Z,1010.72
2024-04-07T10:32:59.419Z,1010.79
2024-04-07T10:33:59.443Z,1010.76
2024-04-07T10:34:59.482Z,1010.79
2024-04-07T10:35:59.516Z,1010.86
2024-04-07T10:36:59.522Z,1010.82
2024-04-07T10:37:59.578Z,1010.85
2024-04-07T10:38:59.576Z,1010.86
2024-04-07T10:39:59.614Z,1010.79
2024-04-07T10:40:59.642Z,1010.81
2024-04-07T10:41:59.690Z,1010.89
2024-04-07T10:42:59.679Z,1010.89
2024-04-07T10:43:59.757Z,1010.95
2024-04-07T10:44:59.736Z,1010.96
2024-04-07T10:45:59.765Z,1010.92
2024-04-07T10:46:59.798Z,1011.02
2024-04-07T10:47:59.814Z,1011.05
2024-04-07T10:48:59.840Z,1011.10
2024-04-07T10:49:59.888Z,1011.07
2024-04-07T10:50:59.895Z,1011.09
2024-04-07T10:51:59.918Z,1011.06
2024-04-07T10:52:59.952Z,1011.09
2024-04-07T10:53:59.970Z,1011.09
2024-04-07T10:55:00.035Z,1011.08
2024-04-07T10:56:00.051Z,1011.09
2024-04-07T10:57:00.051Z,1011.05
2024-04-07T10:58:00.078Z,1011.01
2024-04-07T10:59:00.135Z,1010.97
2024-04-07T11:00:00.165Z,1011.03
2024-04-07T11:01:00.153Z,1011.09
2024-04-07T11:02:00.188Z,1011.11
2024-04-07T11:03:00.214Z,1011.07
2024-04-07T11:04:00.229Z,1011.00
2024-04-07T11:05:00.303Z,1011.08
2024-04-07T11:06:00.288Z,1011.10
2024-04-07T11:07:00.312Z,1011.06
2024-04-07T11:08:00.350Z,1011.07
2024-04-07T11:09:00.364Z,1011.12
2024-04-07T11:10:00.405Z,1011.15
2024-04-07T11:11:00.480Z,1011.15
2024-04-07T11:12:00.446Z,1011.18
2024-04-07T11:13:00.470Z,1011.11
2024-04-07T11:14:00.529Z,1011.12
2024-04-07T11:15:00.525Z,1011.09
2024-04-07T11:16:00.552Z,1011.06
2024-04-07T11:17:00.647Z,1011.18
2024-04-07T11:18:00.648Z,1011.15
2024-04-07T11:19:00.631Z,1011.17
2024-04-07T11:20:00.683Z,1011.23
2024-04-07T11:21:00.685Z,1011.21
2024-04-07T11:22:00.713Z,1011.25
2024-04-07T11:23:00.754Z,1011.22
2024-04-07T11:24:00.768Z,1011.27
2024-04-07T11:25:00.797Z,1011.27
2024-04-07T11:26:00.844Z,1011.28
2024-04-07T11:27:00.853Z,1011.23
2024-04-07T11:28:00.879Z,1011.17
2024-04-07T11:29:00.948Z,1011.17
2024-04-07T11:30:00.944Z,1011.18
2024-04-07T11:31:00.958Z,1011.22
2024-04-07T11:32:07.989Z,1011.23
2024-04-07T11:33:01.010Z,1011.22
2024-04-07T11:34:01.038Z,1011.23
2024-04-07T11:35:01.081Z,1011.30
2024-04-07T11:36:01.091Z,1011.31
2024-04-07T11:37:01.122Z,1011.35
2024-04-07T11:38:01.189Z,1011.29
2024-04-07T11:39:01.184Z,1011.31
2024-04-07T11:40:01.202Z,1011.24
2024-04-07T11:41:01.252Z,1011.24
2024-04-07T11:42:01.262Z,1011.21
2024-04-07T11:43:01.292Z,1011.26
2024-04-07T11:44:01.339Z,1011.26
2024-04-07T11:45:01.348Z,1011.34
2024-04-07T11:46:01.380Z,1011.32
2024-04-07T11:47:01.412Z,1011.37
2024-04-07T11:48:01.441Z,1011.28
2024-04-07T11:49:01.470Z,1011.19
2024-04-07T11:50:01.559Z,1011.19
2024-04-07T11:51:01.532Z,1011.11
2024-04-07T11:52:01.561Z,1011.04
2024-04-07T11:53:01.645Z,1011.01
2024-04-07T11:54:01.634Z,1011.01
2024-04-07T11:55:01.660Z,1010.91
2024-04-07T11:56:01.733Z,1010.97
2024-04-07T11:57:01.728Z,1011.01
2024-04-07T11:58:01.766Z,1010.99
2024-04-07T11:59:01.790Z,1011.01
2024-04-07T12:00:01.842Z,1011.05
2024-04-07T12:01:01.844Z,1011.06
2024-04-07T12:02:01.886Z,1011.11
2024-04-07T12:03:01.915Z,1011.13
2024-04-07T12:04:01.956Z,1011.12
2024-04-07T12:05:03.081Z,1011.13
2024-04-07T12:06:02.008Z,1011.17